Flight Track Log - Related Links

Times and Time Zones

All times are in EDT time to prevent confusion due to time zone crossing. See the SKW5564 flight status page for this flight to view local times or setup timezone preferences in your user account.

Time Position Orientation Groundspeed Altitude Reporting Facility
EDT Latitude Longitude Course Direction KTS MPH feet Rate Location/Type
Tue 01:01:26 PM 37.6333 -122.3500 50° Northeast 159 183 1,100  Level Northern Cal TRACON
Tue 01:02:20 PM 37.6667 -122.3000 50° Northeast 241 277 2,900 2,263 Climbing Northern Cal TRACON
Tue 01:03:20 PM 37.7333 -122.2333 38° Northeast 282 325 5,400 2,857 Climbing Northern Cal TRACON
Tue 01:04:26 PM 37.7833 -122.1500 53° Northeast 303 349 8,900 3,238 Climbing Northern Cal TRACON
Tue 01:05:26 PM 37.8500 -122.0667 45° Northeast 308 354 12,200 3,000 Climbing Northern Cal TRACON
Tue 01:06:12 PM 37.8928 -122.0067 48° Northeast 311 358 14,200 2,299 Climbing Oakland Center
Tue 01:07:13 PM 37.9547 -121.9222 47° Northeast 329 379 16,300 2,049 Climbing Oakland Center
Tue 01:08:15 PM 38.0192 -121.8317 48° Northeast 344 396 18,400 1,317 Climbing Oakland Center
Tue 01:09:16 PM 38.0919 -121.7311 47° Northeast 389 448 19,000 344 Climbing Oakland Center
Tue 01:10:17 PM 38.1736 -121.6172 48° Northeast 435 501 19,100 829 Climbing Oakland Center
Tue 01:11:19 PM 38.2567 -121.5000 48° Northeast 445 512 20,700 1,951 Climbing Oakland Center
Tue 01:12:20 PM 38.3528 -121.3644 48° Northeast 444 511 23,100 2,164 Climbing Oakland Center
Tue 01:13:21 PM 38.4261 -121.2442 52° Northeast 437 503 25,100 1,902 Climbing Oakland Center
Tue 01:14:23 PM 38.4986 -121.1228 53° Northeast 442 509 27,000 1,707 Climbing Oakland Center
Tue 01:15:24 PM 38.5739 -121.0028 51° Northeast 442 509 28,600 1,512 Climbing Oakland Center
Tue 01:16:26 PM 38.6258 -120.8614 65° Northeast 439 505 30,100 1,463 Climbing Oakland Center
Tue 01:17:27 PM 38.6756 -120.7142 67° East 448 516 31,600 1,317 Climbing Oakland Center
Tue 01:18:29 PM 38.7383 -120.5347 66° East 459 528 32,800 1,122 Climbing Oakland Center
Tue 01:19:30 PM 38.8089 -120.3897 58° Northeast 474 545 33,900 976 Climbing Oakland Center
Tue 01:20:32 PM 38.8783 -120.2419 59° Northeast 482 555 34,800 976 Climbing Oakland Center
Tue 01:21:33 PM 38.9486 -120.0897 59° Northeast 493 567 35,900 1,024 Climbing Oakland Center
Tue 01:22:35 PM 39.0175 -119.9417 59° Northeast 495 570 36,900 976 Climbing Oakland Center
Tue 01:23:36 PM 39.0883 -119.7894 59° Northeast 496 571 37,900 984 Climbing Oakland Center
Tue 01:24:37 PM 39.1594 -119.6392 59° Northeast 491 565 38,900 537 Climbing Oakland Center
Tue 01:25:39 PM 39.2275 -119.4858 60° Northeast 493 567 39,000 49 Climbing Oakland Center
Tue 01:26:40 PM 39.3136 -119.2978 59° Northeast 504 580 39,000  Level Oakland Center
Tue 01:27:42 PM 39.3867 -119.1369 60° Northeast 514 592 39,000  Level Oakland Center
Tue 01:28:43 PM 39.4569 -118.9803 60° Northeast 517 595 39,000  Level Oakland Center
Tue 01:29:45 PM 39.5356 -118.8100 59° Northeast 521 600 39,000  Level Oakland Center
Tue 01:30:46 PM 39.6089 -118.6428 60° Northeast 523 602 39,000  Level Oakland Center
Tue 01:31:48 PM 39.6811 -118.4783 60° Northeast 518 596 39,000  Level Oakland Center
Tue 01:32:49 PM 39.7514 -118.3153 61° Northeast 517 595 39,000  Level Oakland Center
Tue 01:33:51 PM 39.8236 -118.1536 60° Northeast 516 594 39,000  Level Oakland Center
Tue 01:34:52 PM 39.8931 -117.9908 61° Northeast 515 593 39,000  Level Oakland Center
Tue 01:35:54 PM 39.9639 -117.8281 60° Northeast 515 593 39,000  Level Oakland Center
Tue 01:36:55 PM 40.0342 -117.6667 60° Northeast 513 590 39,000  Level Oakland Center
Tue 01:37:57 PM 40.1031 -117.5033 61° Northeast 513 590 39,000  Level Oakland Center
Tue 01:38:58 PM 40.1861 -117.3111 60° Northeast 513 590 39,000  Level Oakland Center
Tue 01:40:00 PM 40.2522 -117.1544 61° Northeast 515 593 39,000  Level Oakland Center
Tue 01:41:01 PM 40.3172 -116.9989 61° Northeast 511 588 39,000  Level Oakland Center
Tue 01:42:03 PM 40.3900 -116.8286 61° Northeast 517 595 39,000  Level Oakland Center
Tue 01:43:04 PM 40.4592 -116.6611 61° Northeast 521 600 39,000  Level Oakland Center
Tue 01:44:06 PM 40.5344 -116.4781 62° Northeast 521 600 39,000  Level Oakland Center
Tue 01:45:21 PM 40.5778 -116.2414 76° East 520 598 39,000  Level Salt Lake Center
Tue 01:46:23 PM 40.5892 -116.0606 85° East 520 598 39,000  Level Salt Lake Center
Tue 01:47:25 PM 40.6039 -115.8489 85° East 519 597 39,000  Level Salt Lake Center
Tue 01:49:29 PM 40.6306 -115.4564 85° East 519 597 39,000  Level Salt Lake Center
Tue 01:50:31 PM 40.6400 -115.2731 86° East 524 603 39,000  Level Salt Lake Center
Tue 01:51:33 PM 40.6553 -115.0619 84° East 519 597 39,000  Level Salt Lake Center
Tue 01:52:35 PM 40.6689 -114.8808 84° East 519 597 39,000  Level Salt Lake Center
Tue 01:53:38 PM 40.6811 -114.6814 85° East 522 601 39,000  Level Salt Lake Center
Tue 01:54:40 PM 40.6928 -114.4922 85° East 521 600 39,000 -387 Level Salt Lake Center
Tue 01:55:42 PM 40.7000 -114.3003 87° East 524 603 38,200 -1,887 Descending Salt Lake Center
Tue 01:56:44 PM 40.7086 -114.1119 86° East 519 597 35,100 -3,242 Descending Salt Lake Center
Tue 01:57:46 PM 40.7203 -113.8883 86° East 512 589 31,500 -3,194 Descending Salt Lake Center
Tue 01:58:48 PM 40.7281 -113.7017 87° East 512 589 28,500 -2,903 Descending Salt Lake Center
Tue 01:59:50 PM 40.7264 -113.5219 91° East 495 570 25,500 -2,952 Descending Salt Lake Center
Tue 02:00:52 PM 40.7261 -113.3536 90° East 469 540 22,400 -2,952 Descending Salt Lake Center
Tue 02:01:54 PM 40.7261 -113.1928 90° East 445 512 19,400 -2,565 Descending Salt Lake Center
Tue 02:02:56 PM 40.7247 -113.0431 91° East 413 475 17,100 -1,161 Descending Salt Lake Center
Tue 02:03:58 PM 40.7236 -112.8922 91° East 330 380 17,000 -48 Descending Salt Lake Center
Tue 02:05:00 PM 40.7228 -112.7747 90° East 323 372 17,000 -343 Level Salt Lake Center
Tue 02:05:43 PM 40.7242 -112.6886 89° East 326 375 16,400 -981 Descending Salt Lake Center
Tue 02:06:44 PM 40.7228 -112.5678 91° East 319 367 15,300 -1,180 Descending Salt Lake Center
Tue 02:07:45 PM 40.7356 -112.4561 81° East 318 366 14,000 -1,289 Descending Salt Lake Center
Tue 02:08:45 PM 40.7525 -112.3431 79° East 317 365 12,700 -992 Descending Salt Lake Center
Tue 02:09:46 PM 40.7658 -112.2225 82° East 314 361 12,000 -744 Descending Salt Lake Center
Tue 02:10:46 PM 40.7442 -112.1222 106° East 284 327 11,200 -942 Descending Salt Lake Center
Tue 02:11:47 PM 40.6792 -112.0875 158° South 253 291 10,100 -1,034 Descending Salt Lake Center
Tue 02:12:42 PM 40.6169 -112.0775 173° South 243 280 9,200 -1,011 Descending Salt Lake Center
Tue 02:13:16 PM 40.6036 -112.0469 120° Southeast 224 258 8,600 -1,125 Descending Salt Lake Center
Tue 02:14:18 PM 40.6344 -111.9936 53° Northeast 183 211 7,400 -1,161 Descending Salt Lake Center

Login

Don't have an account? Register now (free) for customized features, flight alerts, and more!